Time;durP1;ratioP1;P1;durP2;ratioP2;P2;SDS_P1;SDS_P2;PMS_P1;PMS_P2;Temp;Humidity;BMP_temperature;BMP_pressure;BME280_temperature;BME280_humidity;BME280_pressure;Samples;Min_cycle;Max_cycle;Signal;HPM_P1;HPM_P2
2022/06/13 00:00:29;;;;;;;2.85;2.30;;;;;;;19.68;60.06;98817.38;4485290;31;20460;-71
2022/06/13 00:02:57;;;;;;;5.78;2.58;;;;;;;19.78;59.64;98811.75;4485643;31;20137;-71
2022/06/13 00:05:30;;;;;;;8.13;2.20;;;;;;;19.81;58.86;98817.50;4485288;31;20097;-71
2022/06/13 00:07:57;;;;;;;2.92;2.50;;;;;;;19.87;58.13;98815.09;4485541;31;20418;-71
2022/06/13 00:10:24;;;;;;;4.10;2.20;;;;;;;19.89;58.85;98815.69;4485187;31;20096;-71
2022/06/13 00:12:52;;;;;;;2.20;1.87;;;;;;;19.79;59.42;98810.75;4485303;31;20097;-71
2022/06/13 00:15:19;;;;;;;3.53;2.50;;;;;;;19.72;59.22;98812.50;4485381;31;20819;-71
2022/06/13 00:17:46;;;;;;;3.00;2.35;;;;;;;19.64;59.59;98808.19;4485351;31;20157;-71
2022/06/13 00:20:14;;;;;;;5.80;2.17;;;;;;;19.51;59.39;98803.56;4485026;32;20084;-72
2022/06/13 00:22:41;;;;;;;3.65;2.62;;;;;;;19.50;60.83;98805.41;4485272;31;20530;-71
2022/06/13 00:25:09;;;;;;;2.50;2.05;;;;;;;19.48;60.79;98802.13;4485154;31;20202;-71
2022/06/13 00:27:37;;;;;;;3.15;2.70;;;;;;;19.39;61.22;98795.31;4485252;31;20127;-72
2022/06/13 00:30:06;;;;;;;2.85;2.45;;;;;;;19.24;62.68;98794.59;4485346;31;20095;-71
2022/06/13 00:32:34;;;;;;;2.40;2.03;;;;;;;19.24;62.00;98800.75;4485040;31;20522;-71
2022/06/13 00:35:01;;;;;;;3.72;2.55;;;;;;;19.11;61.38;98795.31;4485184;31;20162;-71
2022/06/13 00:37:29;;;;;;;2.78;2.28;;;;;;;19.11;61.27;98790.00;4484985;31;20091;-71
2022/06/13 00:39:57;;;;;;;3.20;2.47;;;;;;;19.11;60.68;98787.34;4485078;31;20160;-71
2022/06/13 00:42:26;;;;;;;2.78;2.12;;;;;;;19.17;61.39;98786.59;4485031;31;20084;-71
2022/06/13 00:45:02;;;;;;;3.10;2.28;;;;;;;19.12;61.24;98787.16;4484671;31;20108;-71
2022/06/13 00:47:29;;;;;;;3.47;2.37;;;;;;;19.06;61.34;98782.63;4484707;31;20104;-71
2022/06/13 00:49:58;;;;;;;3.20;2.50;;;;;;;19.02;61.97;98777.88;4485060;31;20088;-71
2022/06/13 00:52:39;;;;;;;2.22;2.03;;;;;;;18.92;62.18;98781.66;4485061;31;20442;-71
2022/06/13 00:55:10;;;;;;;3.08;2.33;;;;;;;18.91;61.77;98777.38;4483785;32;20085;-71
2022/06/13 00:57:37;;;;;;;6.45;2.72;;;;;;;18.90;61.38;98778.38;4483827;32;20231;-71
2022/06/13 01:00:09;;;;;;;4.20;2.10;;;;;;;18.89;62.03;98776.72;4484735;31;20079;-71
2022/06/13 01:02:39;;;;;;;;;;;;;;;18.89;61.44;98771.44;4485379;31;20073;-71
2022/06/13 01:05:08;;;;;;;2.25;1.95;;;;;;;18.90;61.32;98762.47;4483645;32;19980;-71
2022/06/13 01:07:36;;;;;;;3.70;2.17;;;;;;;18.79;61.50;98761.13;4484794;31;20103;-71
2022/06/13 01:12:51;;;;;;;3.20;2.30;;;;;;;18.81;60.94;98758.25;4484684;31;20122;-71
2022/06/13 01:15:22;;;;;;;6.07;2.25;;;;;;;18.77;60.70;98764.97;4484320;31;20506;-71
2022/06/13 01:18:23;;;;;;;4.07;2.20;;;;;;;18.78;60.56;98759.47;4484604;31;20088;-71
2022/06/13 01:21:28;;;;;;;3.10;2.00;;;;;;;18.71;60.90;98755.94;4483668;32;20084;-71
2022/06/13 01:23:55;;;;;;;;;;;;;;;18.72;61.10;98756.75;4484914;31;20553;-71
2022/06/13 01:26:45;;;;;;;2.35;2.08;;;;;;;18.63;61.11;98748.91;4484668;31;19976;-71
2022/06/13 01:29:29;;;;;;;4.15;2.55;;;;;;;18.61;61.12;98750.13;4483338;32;20127;-71
2022/06/13 01:32:04;;;;;;;3.50;2.12;;;;;;;18.56;61.24;98750.69;4484329;31;20116;-71
2022/06/13 01:34:48;;;;;;;3.87;2.50;;;;;;;18.59;61.50;98746.81;4483124;32;20114;-71
2022/06/13 01:37:51;;;;;;;2.87;2.20;;;;;;;18.53;61.73;98751.06;4484364;31;20100;-71
2022/06/13 01:40:35;;;;;;;3.17;2.10;;;;;;;18.51;61.45;98747.78;4406950;32;20164;-71
2022/06/13 01:43:11;;;;;;;7.45;2.28;;;;;;;18.50;61.34;98748.81;4407561;32;20121;-71
2022/06/13 01:45:45;;;;;;;5.10;2.20;;;;;;;18.44;61.49;98747.72;4419459;32;20129;-71
2022/06/13 01:48:31;;;;;;;3.40;2.10;;;;;;;18.43;62.11;98745.25;4419931;32;20125;-71
2022/06/13 01:51:08;;;;;;;5.22;2.80;;;;;;;18.38;61.58;98743.16;4419627;32;20444;-71
2022/06/13 01:53:35;;;;;;;4.35;2.37;;;;;;;18.36;61.94;98742.50;4419674;32;20116;-71
2022/06/13 01:56:07;;;;;;;4.45;2.10;;;;;;;18.32;61.64;98741.28;4419581;32;20312;-71
2022/06/13 01:58:47;;;;;;;3.80;1.75;;;;;;;18.25;61.24;98743.84;4419710;32;20134;-71
2022/06/13 02:01:18;;;;;;;5.72;1.67;;;;;;;18.23;61.47;98734.44;4421688;32;20208;-71
2022/06/13 02:03:50;;;;;;;4.80;1.90;;;;;;;18.23;61.03;98732.59;4421739;32;20154;-71
2022/06/13 02:06:25;;;;;;;5.97;2.15;;;;;;;18.20;61.08;98732.16;4421577;32;20132;-71
2022/06/13 02:09:01;;;;;;;2.12;1.90;;;;;;;18.18;61.49;98721.75;4409216;32;20436;-71
2022/06/13 02:11:31;;;;;;;2.47;2.20;;;;;;;18.18;61.76;98726.22;4408909;32;20120;-71
2022/06/13 02:14:16;;;;;;;2.55;2.22;;;;;;;18.19;61.82;98728.69;4421550;32;20456;-71
2022/06/13 02:16:54;;;;;;;6.95;2.10;;;;;;;18.19;61.69;98728.69;4435052;32;20149;-71
2022/06/13 02:19:31;;;;;;;2.50;1.90;;;;;;;18.17;61.86;98733.34;4486170;31;20424;-71
2022/06/13 02:22:00;;;;;;;4.80;2.10;;;;;;;18.15;62.38;98730.03;4484881;32;20223;-71
2022/06/13 02:24:33;;;;;;;2.33;1.95;;;;;;;18.12;62.65;98738.38;4484818;32;20465;-71
2022/06/13 02:27:02;;;;;;;4.20;1.67;;;;;;;18.03;62.37;98739.50;4486104;31;20370;-71
2022/06/13 02:29:34;;;;;;;3.80;1.80;;;;;;;18.04;62.06;98735.84;4484800;32;20169;-71
2022/06/13 02:32:08;;;;;;;3.17;2.15;;;;;;;18.01;62.06;98731.72;4475298;32;20096;-71
2022/06/13 02:34:48;;;;;;;3.58;2.20;;;;;;;18.00;62.19;98735.41;4470440;32;20076;-71
2022/06/13 02:37:43;;;;;;;4.85;2.10;;;;;;;17.95;63.17;98734.31;4468986;32;20149;-71
2022/06/13 02:40:15;;;;;;;2.72;1.90;;;;;;;17.81;63.61;98735.94;4469776;32;20474;-71
2022/06/13 02:43:00;;;;;;;3.00;2.20;;;;;;;17.83;64.09;98729.44;4456256;32;20101;-71
2022/06/13 02:45:46;;;;;;;3.00;2.33;;;;;;;17.82;64.17;98726.97;4468818;32;20096;-71
2022/06/13 02:48:22;;;;;;;3.30;2.45;;;;;;;17.76;63.80;98727.72;4470304;32;20099;-71
2022/06/13 02:51:18;;;;;;;5.78;2.10;;;;;;;17.72;63.47;98727.28;4469022;32;20100;-71
2022/06/13 02:54:17;;;;;;;2.25;2.05;;;;;;;17.71;64.42;98728.28;4469039;32;20097;-71
2022/06/13 02:57:23;;;;;;;3.28;2.30;;;;;;;17.68;63.63;98728.63;4468776;32;20497;-71
2022/06/13 03:00:09;;;;;;;5.15;2.25;;;;;;;17.68;63.21;98726.00;4470080;32;20088;-71
2022/06/13 03:03:04;;;;;;;5.60;2.45;;;;;;;17.70;63.47;98729.31;4469843;32;20498;-73
2022/06/13 03:05:47;;;;;;;2.92;1.98;;;;;;;17.73;63.23;98735.03;4470069;32;20145;-73
2022/06/13 03:08:40;;;;;;;3.40;2.05;;;;;;;17.81;62.67;98731.47;4468962;32;20080;-73
2022/06/13 03:11:25;;;;;;;2.10;1.90;;;;;;;17.78;63.46;98729.19;4469595;32;20120;-72
2022/06/13 03:14:10;;;;;;;2.60;2.15;;;;;;;17.71;64.78;98726.47;4468558;32;20124;-71
2022/06/13 03:16:46;;;;;;;3.33;2.10;;;;;;;17.65;65.99;98727.19;4469801;32;20100;-71
2022/06/13 03:19:23;;;;;;;3.03;2.22;;;;;;;17.72;66.52;98724.62;4468809;32;20119;-71
2022/06/13 03:22:04;;;;;;;8.35;2.35;;;;;;;17.89;67.01;98725.28;4468492;32;20456;-71
2022/06/13 03:25:07;;;;;;;6.05;2.47;;;;;;;18.04;66.88;98726.06;4469963;32;20096;-71
2022/06/13 03:27:36;;;;;;;3.60;2.10;;;;;;;18.21;67.38;98725.84;4469618;32;20101;-73
2022/06/13 03:30:11;;;;;;;2.95;2.28;;;;;;;18.33;67.58;98723.50;4469185;32;20088;-73
2022/06/13 03:33:39;;;;;;;5.53;2.00;;;;;;;18.41;66.26;98726.03;4481899;32;20092;-73
2022/06/13 03:35:34;;;;;;;3.00;2.08;;;;;;;18.52;66.22;98722.09;4484447;32;20487;-74
2022/06/13 03:38:04;;;;;;;2.22;2.03;;;;;;;18.63;65.72;98719.72;4484254;32;20569;-74
2022/06/13 03:40:33;;;;;;;2.87;2.17;;;;;;;18.73;65.36;98714.09;4484307;32;20093;-73
2022/06/13 03:43:19;;;;;;;2.55;2.10;;;;;;;18.82;64.77;98722.75;4483934;32;20118;-73
2022/06/13 03:45:54;;;;;;;2.92;2.22;;;;;;;18.93;65.11;98713.47;4485699;31;20080;-73
2022/06/13 03:48:22;;;;;;;2.20;2.00;;;;;;;19.03;65.28;98707.81;4485646;31;20110;-73
2022/06/13 03:51:12;;;;;;;3.72;2.35;;;;;;;19.12;63.45;98706.66;4485562;31;20462;-73
2022/06/13 03:53:46;;;;;;;2.55;1.80;;;;;;;19.23;61.24;98705.28;4484282;32;20510;-73
2022/06/13 03:56:16;;;;;;;4.03;2.22;;;;;;;19.38;59.56;98710.50;4484169;32;20104;-73
2022/06/13 03:58:57;;;;;;;2.40;2.00;;;;;;;19.49;59.27;98712.63;4485547;31;20116;-73
2022/06/13 04:01:28;;;;;;;3.17;2.00;;;;;;;19.57;59.36;98712.44;4457619;32;20093;-73
2022/06/13 04:03:56;;;;;;;3.65;1.90;;;;;;;19.65;58.80;98709.62;4478700;32;20089;-73
2022/06/13 04:06:35;;;;;;;2.30;1.90;;;;;;;19.77;58.94;98709.06;4482936;32;20154;-73
2022/06/13 04:09:24;;;;;;;3.62;2.33;;;;;;;19.91;59.82;98705.47;4482523;31;20092;-71
2022/06/13 04:12:04;;;;;;;3.78;2.20;;;;;;;20.01;59.64;98710.41;4483884;31;20119;-71
2022/06/13 04:14:59;;;;;;;6.50;2.17;;;;;;;20.07;59.22;98706.16;4476982;32;20446;-71
2022/06/13 04:17:40;;;;;;;2.95;2.03;;;;;;;20.14;58.03;98704.34;4479346;32;20096;-71
2022/06/13 04:20:22;;;;;;;2.95;2.05;;;;;;;20.33;58.11;98705.37;4480407;32;20502;-71
2022/06/13 04:23:14;;;;;;;3.25;2.20;;;;;;;20.45;57.66;98705.59;4481433;32;20125;-73
2022/06/13 04:25:47;;;;;;;3.37;1.83;;;;;;;20.68;58.44;98708.75;4481542;32;20080;-72
2022/06/13 04:29:01;;;;;;;7.62;2.45;;;;;;;20.96;56.10;98706.91;4482264;32;20096;-71
2022/06/13 04:31:30;;;;;;;8.52;2.17;;;;;;;21.06;56.48;98716.09;4454808;32;20131;-72
2022/06/13 04:34:09;;;;;;;5.35;2.12;;;;;;;21.21;56.49;98721.22;4438772;32;20609;-74
2022/06/13 04:36:36;;;;;;;2.58;1.90;;;;;;;21.33;55.05;98716.03;4437663;32;20604;-74
2022/06/13 04:39:07;;;;;;;4.03;1.77;;;;;;;21.50;54.48;98719.13;4437487;32;20114;-73
2022/06/13 04:41:37;;;;;;;5.57;1.75;;;;;;;21.72;54.13;98719.66;4437166;32;20127;-73
2022/06/13 04:44:07;;;;;;;2.30;2.10;;;;;;;21.97;52.81;98719.78;4436367;32;20833;-73
2022/06/13 04:46:36;;;;;;;2.53;2.00;;;;;;;22.13;52.41;98717.66;4433147;32;20582;-73
2022/06/13 04:49:06;;;;;;;3.67;2.10;;;;;;;22.30;51.63;98712.63;4435707;32;20427;-73
2022/06/13 04:51:40;;;;;;;4.47;1.80;;;;;;;22.44;49.59;98708.06;4423553;32;20116;-75
2022/06/13 04:54:25;;;;;;;2.30;1.50;;;;;;;22.57;49.95;98705.28;4450238;32;20085;-75
2022/06/13 04:56:59;;;;;;;3.20;1.80;;;;;;;22.67;47.52;98712.81;4439501;32;20240;-75
2022/06/13 04:59:28;;;;;;;8.63;2.42;;;;;;;22.81;49.99;98719.69;4450191;32;20541;-75
2022/06/13 05:01:56;;;;;;;13.95;2.15;;;;;;;22.98;50.01;98716.47;4451894;32;20446;-74
2022/06/13 05:04:29;;;;;;;6.78;1.80;;;;;;;22.99;48.65;98715.44;4473346;31;20100;-73
2022/06/13 05:07:09;;;;;;;6.10;1.75;;;;;;;23.10;47.08;98717.41;4477168;32;20146;-76
2022/06/13 05:09:41;;;;;;;3.72;1.85;;;;;;;23.24;47.91;98710.09;4481679;32;20096;-75
2022/06/13 05:12:17;;;;;;;4.47;1.77;;;;;;;23.33;46.74;98713.28;4482381;31;20156;-75
2022/06/13 05:15:07;;;;;;;3.35;2.33;;;;;;;23.54;48.27;98710.19;4474654;32;20080;-75
2022/06/13 05:17:38;;;;;;;9.48;1.77;;;;;;;23.67;47.84;98713.75;4473479;32;20099;-75
2022/06/13 05:20:26;;;;;;;6.90;2.03;;;;;;;23.69;47.24;98711.66;4481990;32;20092;-75
2022/06/13 05:23:12;;;;;;;3.92;1.58;;;;;;;23.85;46.68;98712.97;4479997;32;20084;-75
2022/06/13 05:25:44;;;;;;;5.22;1.70;;;;;;;23.98;46.35;98728.00;4479491;32;20159;-75
2022/06/13 05:28:15;;;;;;;8.50;2.05;;;;;;;24.15;47.35;98726.34;4476694;32;20088;-76
2022/06/13 05:30:43;;;;;;;7.40;2.00;;;;;;;24.22;46.33;98729.75;4471754;32;20093;-75
2022/06/13 05:33:13;;;;;;;12.90;3.42;;;;;;;24.27;45.72;98721.88;4473397;32;20500;-73
2022/06/13 05:35:43;;;;;;;5.03;1.67;;;;;;;24.34;45.57;98727.09;4479827;31;20161;-75
2022/06/13 05:38:16;;;;;;;2.03;1.67;;;;;;;24.47;45.80;98723.44;4479785;32;20116;-75
2022/06/13 05:40:44;;;;;;;6.82;1.87;;;;;;;24.43;44.75;98724.94;4475224;32;20138;-75
2022/06/13 05:43:13;;;;;;;4.15;1.83;;;;;;;24.62;45.53;98721.16;4481034;31;20100;-75
2022/06/13 05:45:40;;;;;;;11.80;2.00;;;;;;;24.66;45.47;98720.72;4483945;32;20164;-75
2022/06/13 05:48:17;;;;;;;11.60;2.20;;;;;;;24.64;44.60;98723.62;4484537;32;20084;-75
2022/06/13 05:50:44;;;;;;;10.05;1.70;;;;;;;24.55;45.79;98712.37;4480918;31;20100;-75
2022/06/13 05:53:13;;;;;;;8.05;1.87;;;;;;;24.64;44.68;98712.91;4480402;31;20157;-74
2022/06/13 05:55:41;;;;;;;3.15;1.80;;;;;;;24.64;45.80;98720.13;4480654;32;20152;-74
2022/06/13 05:58:11;;;;;;;8.10;1.90;;;;;;;24.68;46.88;98715.94;4462283;32;20097;-74
2022/06/13 06:00:43;;;;;;;8.68;2.10;;;;;;;24.63;45.05;98721.97;4473096;32;20104;-74
2022/06/13 06:03:11;;;;;;;10.23;1.87;;;;;;;24.66;45.73;98710.00;4480579;31;20167;-74
2022/06/13 06:05:39;;;;;;;7.72;1.70;;;;;;;24.74;47.77;98715.84;4464552;31;20501;-74
2022/06/13 06:08:21;;;;;;;3.83;1.90;;;;;;;24.80;46.68;98722.16;4479894;32;20076;-74
2022/06/13 06:10:51;;;;;;;9.88;2.17;;;;;;;24.86;46.79;98721.22;4484143;32;20444;-75
2022/06/13 06:13:19;;;;;;;3.25;1.77;;;;;;;24.95;48.74;98722.50;4478165;32;20080;-75
2022/06/13 06:15:47;;;;;;;7.05;1.60;;;;;;;24.97;46.68;98719.59;4481306;31;20127;-75
2022/06/13 06:18:16;;;;;;;7.65;2.17;;;;;;;25.09;48.72;98711.56;4482067;31;20092;-76
2022/06/13 06:20:44;;;;;;;6.37;2.25;;;;;;;25.29;46.02;98712.03;4481261;31;20131;-76
2022/06/13 06:23:12;;;;;;;3.03;1.98;;;;;;;25.22;44.82;98711.31;4479084;31;20145;-76
2022/06/13 06:25:41;;;;;;;5.75;3.25;;;;;;;25.40;44.10;98721.13;4479251;31;20164;-76
2022/06/13 06:28:15;;;;;;;3.08;1.80;;;;;;;25.27;46.66;98713.28;4480992;31;20124;-76
2022/06/13 06:30:42;;;;;;;4.03;1.92;;;;;;;25.23;45.42;98714.81;4483074;32;20095;-76
2022/06/13 06:33:10;;;;;;;3.33;1.80;;;;;;;25.25;44.36;98716.19;4480235;31;20114;-77
2022/06/13 06:35:38;;;;;;;5.25;2.47;;;;;;;25.35;45.47;98722.88;4483777;31;20096;-77
2022/06/13 06:38:06;;;;;;;2.97;1.80;;;;;;;25.37;45.97;98726.13;4481366;31;20093;-75
2022/06/13 06:40:33;;;;;;;4.32;1.80;;;;;;;25.38;44.02;98723.22;4480996;32;20156;-75
2022/06/13 06:43:00;;;;;;;5.15;2.00;;;;;;;25.46;45.84;98717.47;4476739;31;20434;-75
2022/06/13 06:45:28;;;;;;;5.37;1.62;;;;;;;25.56;46.01;98716.09;4476832;32;20180;-74
2022/06/13 06:47:56;;;;;;;5.65;1.92;;;;;;;25.66;44.64;98729.69;4480989;31;20105;-76
2022/06/13 06:50:31;;;;;;;5.47;2.10;;;;;;;25.76;44.17;98715.69;4484329;32;20104;-75
2022/06/13 06:52:59;;;;;;;2.67;1.90;;;;;;;25.74;43.43;98723.97;4490197;31;20096;-74
2022/06/13 07:01:04;;;;;;;3.70;1.80;;;;;;;26.02;43.19;98719.72;4481384;31;20154;-75
2022/06/13 07:03:32;;;;;;;5.05;2.15;;;;;;;25.99;44.73;98722.88;4480152;31;20143;-75
2022/06/13 07:05:59;;;;;;;11.63;2.30;;;;;;;26.01;43.17;98726.97;4474373;32;20129;-76
2022/06/13 07:08:27;;;;;;;5.35;1.87;;;;;;;26.08;43.29;98726.00;4470725;32;20112;-74
2022/06/13 07:11:53;;;;;;;4.00;2.20;;;;;;;25.84;43.72;98726.03;4476928;32;20434;-75
2022/06/13 07:13:43;;;;;;;4.70;1.92;;;;;;;25.65;42.77;98731.56;4478156;32;20096;-74
2022/06/13 07:16:10;;;;;;;3.75;1.98;;;;;;;25.62;47.24;98729.38;4480020;31;20158;-75
2022/06/13 07:18:37;;;;;;;4.32;2.47;;;;;;;25.50;48.70;98729.38;4478938;32;20126;-74
2022/06/13 07:21:04;;;;;;;3.40;2.15;;;;;;;25.75;48.42;98730.16;4482258;31;20510;-73
2022/06/13 07:23:32;;;;;;;3.33;2.30;;;;;;;26.02;47.40;98728.56;4481204;31;20100;-75
2022/06/13 07:25:59;;;;;;;11.98;2.67;;;;;;;26.15;46.97;98724.81;4477475;32;20089;-74
2022/06/13 07:28:26;;;;;;;5.32;2.03;;;;;;;26.15;44.56;98726.69;4477837;31;20088;-74
2022/06/13 07:30:53;;;;;;;5.60;2.20;;;;;;;25.79;43.42;98718.72;4479536;32;20477;-74
2022/06/13 07:33:21;;;;;;;3.40;2.47;;;;;;;26.08;44.29;98723.31;4475143;32;20478;-74
2022/06/13 07:35:48;;;;;;;4.97;2.03;;;;;;;26.15;43.66;98724.00;4480844;31;20100;-75
2022/06/13 07:38:18;;;;;;;4.28;2.15;;;;;;;26.20;43.64;98727.56;4474364;32;20162;-75
2022/06/13 07:40:51;;;;;;;6.68;2.45;;;;;;;26.05;42.51;98721.13;4478944;31;20897;-74
2022/06/13 07:43:38;;;;;;;4.37;2.83;;;;;;;26.08;44.70;98720.63;4478167;32;20584;-75
2022/06/13 07:46:06;;;;;;;2.87;2.10;;;;;;;26.11;42.84;98726.31;4471275;32;20485;-76
2022/06/13 07:48:34;;;;;;;8.05;2.10;;;;;;;26.14;42.59;98723.16;4481311;32;20121;-75
2022/06/13 07:51:02;;;;;;;3.62;2.08;;;;;;;26.05;42.31;98724.59;4482344;32;20147;-76
2022/06/13 07:53:29;;;;;;;6.45;2.42;;;;;;;25.98;42.34;98714.03;4473262;32;20223;-76
2022/06/13 07:56:20;;;;;;;5.97;2.53;;;;;;;26.20;42.13;98722.19;4468934;32;20155;-76
2022/06/13 07:58:50;;;;;;;4.95;2.60;;;;;;;26.36;45.70;98726.00;4479187;32;20084;-76
2022/06/13 08:01:18;;;;;;;2.80;2.40;;;;;;;26.51;44.66;98724.62;4474764;32;20113;-75
2022/06/13 08:03:46;;;;;;;5.07;2.40;;;;;;;26.22;44.26;98721.97;4482047;32;20095;-74
2022/06/13 08:06:13;;;;;;;2.78;2.37;;;;;;;26.17;46.04;98717.31;4475054;32;20157;-75
2022/06/13 08:08:41;;;;;;;3.62;2.60;;;;;;;26.51;44.66;98706.66;4483023;31;20104;-75
2022/06/13 08:11:11;;;;;;;3.70;2.60;;;;;;;26.44;42.54;98705.19;4477466;31;20151;-75
2022/06/13 08:13:39;;;;;;;8.82;2.70;;;;;;;26.48;44.00;98707.13;4477878;32;20104;-75
2022/06/13 08:16:07;;;;;;;4.30;2.60;;;;;;;26.68;42.52;98704.00;4476685;31;20110;-75
2022/06/13 08:18:36;;;;;;;5.12;2.45;;;;;;;26.81;42.98;98710.09;4477528;32;20165;-75
2022/06/13 08:21:05;;;;;;;5.18;2.55;;;;;;;26.56;41.79;98698.66;4479764;32;20175;-75
2022/06/13 08:23:32;;;;;;;3.05;2.40;;;;;;;26.58;42.76;98706.47;4483101;31;20149;-75
2022/06/13 08:26:00;;;;;;;8.80;3.20;;;;;;;26.52;42.57;98707.44;4480639;32;20126;-75
2022/06/13 08:28:28;;;;;;;2.58;2.37;;;;;;;26.77;44.21;98711.63;4476064;31;20101;-75
2022/06/13 08:30:59;;;;;;;2.75;2.10;;;;;;;26.78;41.51;98705.22;4478930;32;20166;-75
2022/06/13 08:33:28;;;;;;;4.32;2.67;;;;;;;26.83;43.67;98707.97;4475701;32;20613;-75
2022/06/13 08:35:55;;;;;;;3.37;2.33;;;;;;;26.89;41.21;98709.72;4480251;31;20107;-75
2022/06/13 08:38:23;;;;;;;9.77;2.80;;;;;;;26.52;41.97;98710.94;4485668;31;20093;-75
2022/06/13 08:41:15;;;;;;;4.37;2.62;;;;;;;26.62;43.37;98715.69;4472761;31;20150;-75
2022/06/13 08:44:19;;;;;;;6.43;2.53;;;;;;;26.37;44.05;98714.22;4474578;32;20096;-75
2022/06/13 08:47:27;;;;;;;6.72;2.45;;;;;;;26.84;44.24;98712.28;4478066;32;20096;-75
2022/06/13 08:50:03;;;;;;;8.57;2.58;;;;;;;27.00;42.59;98708.78;4470829;31;20132;-75
2022/06/13 08:52:44;;;;;;;3.40;2.87;;;;;;;27.16;42.70;98706.31;4472892;32;20092;-78
2022/06/13 08:55:15;;;;;;;6.10;2.42;;;;;;;27.18;43.37;98709.59;4479759;32;20119;-77
2022/06/13 08:57:50;;;;;;;2.55;2.05;;;;;;;26.63;41.22;98705.75;4480374;32;20161;-76
2022/06/13 09:00:20;;;;;;;4.87;2.58;;;;;;;26.60;41.38;98704.34;4477852;32;20149;-77
2022/06/13 09:02:52;;;;;;;6.50;2.80;;;;;;;26.64;44.11;98699.31;4476232;32;20483;-77
2022/06/13 09:05:36;;;;;;;10.27;2.90;;;;;;;26.86;45.29;98700.25;4475306;32;20129;-77
2022/06/13 09:08:07;;;;;;;;;;;;;;;26.70;42.87;98693.81;4478236;32;20096;-77
2022/06/13 09:10:59;;;;;;;2.83;2.30;;;;;;;26.65;42.59;98691.00;4474076;32;19976;-77
2022/06/13 09:13:34;;;;;;;7.07;2.55;;;;;;;26.59;41.24;98686.62;4479365;32;20088;-77
2022/06/13 09:16:07;;;;;;;2.72;2.47;;;;;;;26.42;41.81;98683.09;4476210;32;20100;-77
2022/06/13 09:19:02;;;;;;;4.10;2.65;;;;;;;26.61;40.98;98686.38;4472699;32;225195;-77
2022/06/13 09:21:37;;;;;;;4.10;2.80;;;;;;;26.61;40.90;98679.12;4473504;32;20088;-77
2022/06/13 09:24:24;;;;;;;6.12;2.65;;;;;;;26.69;40.65;98676.06;4477477;32;20119;-77
2022/06/13 09:26:57;;;;;;;4.00;2.60;;;;;;;26.63;41.17;98676.19;4477291;32;20092;-79
2022/06/13 09:29:42;;;;;;;6.35;2.60;;;;;;;26.71;42.77;98670.44;4477028;32;20205;-78
2022/06/13 09:32:13;;;;;;;4.45;2.30;;;;;;;26.87;40.48;98661.56;4478249;32;20132;-78
2022/06/13 09:34:44;;;;;;;12.20;2.80;;;;;;;26.91;39.89;98667.25;4470164;32;20104;-78
2022/06/13 09:37:21;;;;;;;7.20;2.37;;;;;;;27.21;40.54;98666.06;4478537;31;20450;-78
2022/06/13 09:39:49;;;;;;;3.50;2.72;;;;;;;27.14;39.95;98671.59;4490147;31;20208;-78
2022/06/13 09:42:28;;;;;;;4.37;3.10;;;;;;;27.22;39.79;98657.75;4474091;32;20088;-78
2022/06/13 09:45:35;;;;;;;2.92;2.62;;;;;;;27.35;38.96;98655.78;4478417;32;20100;-78
2022/06/13 09:48:02;;;;;;;4.30;2.50;;;;;;;27.65;38.68;98647.25;4476616;32;20375;-77
2022/06/13 09:50:43;;;;;;;3.58;2.75;;;;;;;27.83;39.50;98653.34;4483685;32;20126;-78
2022/06/13 09:53:35;;;;;;;2.85;2.50;;;;;;;27.52;39.66;98651.13;4482268;31;20084;-78
2022/06/13 09:56:34;;;;;;;4.12;2.60;;;;;;;27.56;39.73;98641.50;4470931;31;20115;-78
2022/06/13 09:59:18;;;;;;;3.60;2.55;;;;;;;27.78;41.04;98641.50;4478770;32;20100;-78
2022/06/13 10:01:59;;;;;;;4.28;2.55;;;;;;;27.75;38.75;98639.31;4479631;32;20116;-78
2022/06/13 10:04:48;;;;;;;3.97;2.70;;;;;;;27.40;38.61;98628.94;4479586;31;20112;-77
2022/06/13 10:07:22;;;;;;;3.58;2.90;;;;;;;27.47;39.73;98632.25;4473336;32;20142;-77
2022/06/13 10:10:04;;;;;;;2.92;2.55;;;;;;;27.64;40.65;98628.66;4478340;32;20519;-79
2022/06/13 10:12:37;;;;;;;4.00;2.53;;;;;;;27.66;40.03;98619.28;4481616;31;20160;-77
2022/06/13 10:15:15;;;;;;;3.25;2.58;;;;;;;27.94;39.64;98630.88;4470130;32;20084;-77
2022/06/13 10:18:13;;;;;;;3.42;2.50;;;;;;;28.18;39.39;98625.19;4473281;32;20458;-76
2022/06/13 10:20:49;;;;;;;3.55;2.55;;;;;;;28.25;38.57;98621.22;4468562;32;20146;-77
2022/06/13 10:23:22;;;;;;;4.37;2.67;;;;;;;28.67;39.08;98619.66;4477564;32;20126;-78
2022/06/13 10:26:11;;;;;;;3.85;2.40;;;;;;;28.42;37.75;98625.66;4484597;31;20126;-78
2022/06/13 10:28:53;;;;;;;3.53;2.47;;;;;;;28.88;38.46;98601.72;4478277;31;20089;-78
2022/06/13 10:31:39;;;;;;;8.10;3.62;;;;;;;29.03;37.39;98603.69;4475841;32;20157;-78
2022/06/13 10:34:18;;;;;;;2.53;2.22;;;;;;;29.24;36.15;98598.41;4478131;32;20110;-79
2022/06/13 10:37:04;;;;;;;3.05;2.28;;;;;;;29.48;37.23;98605.00;4478944;32;20145;-73
2022/06/13 10:39:31;;;;;;;3.30;2.05;;;;;;;29.93;34.59;98596.47;4478278;32;20156;-72
2022/06/13 10:42:09;;;;;;;2.72;2.53;;;;;;;29.99;35.40;98593.50;4479074;32;20147;-72
2022/06/13 10:44:37;;;;;;;5.10;2.90;;;;;;;29.49;35.85;98589.59;4483634;31;20562;-73
2022/06/13 10:47:29;;;;;;;10.38;2.62;;;;;;;29.32;36.37;98587.94;4483042;32;20092;-73
2022/06/13 10:50:00;;;;;;;3.85;2.35;;;;;;;29.61;37.70;98592.88;4476906;31;20120;-73
2022/06/13 10:52:33;;;;;;;2.33;2.12;;;;;;;29.74;37.79;98586.97;4475859;32;20092;-74
2022/06/13 10:55:08;;;;;;;4.33;2.37;;;;;;;29.98;36.05;98586.50;4475898;31;20077;-73
2022/06/13 10:57:48;;;;;;;4.25;2.40;;;;;;;29.76;35.34;98578.59;4470568;31;20100;-73
2022/06/13 11:00:24;;;;;;;10.07;3.25;;;;;;;29.52;37.39;98570.19;4477299;31;20096;-73
2022/06/13 11:02:52;;;;;;;3.75;1.95;;;;;;;30.26;35.75;98563.50;4485973;31;20112;-73
2022/06/13 11:05:22;;;;;;;4.72;2.42;;;;;;;30.70;33.24;98566.72;4478766;31;20114;-71
2022/06/13 11:08:00;;;;;;;5.05;2.30;;;;;;;30.41;35.78;98565.41;4477540;31;20108;-73
2022/06/13 11:10:42;;;;;;;3.37;2.33;;;;;;;30.06;36.92;98566.22;4478088;31;20116;-71
2022/06/13 11:13:14;;;;;;;5.90;2.45;;;;;;;29.30;35.25;98556.91;4475566;31;20095;-73
2022/06/13 11:24:47;;;;;;;3.25;2.75;;;;;;;28.30;42.57;98572.75;4482482;32;20092;-73
2022/06/13 11:27:40;;;;;;;3.45;3.05;;;;;;;28.65;42.28;98557.94;4468501;32;20093;-72
2022/06/13 11:30:25;;;;;;;4.50;2.85;;;;;;;28.64;42.54;98563.59;4468105;32;20107;-72
2022/06/13 11:32:59;;;;;;;5.22;3.40;;;;;;;29.16;43.17;98548.44;4478135;31;20120;-73
2022/06/13 11:35:32;;;;;;;;;;;;;;;29.10;43.49;98544.94;4484485;31;20141;-74
2022/06/13 11:38:18;;;;;;;4.35;3.28;;;;;;;28.97;43.28;98542.72;4481751;31;20757;-73
2022/06/13 11:41:03;;;;;;;3.30;2.90;;;;;;;28.89;42.60;98543.22;4483263;31;20092;-74
2022/06/13 11:43:30;;;;;;;4.30;3.20;;;;;;;29.19;44.20;98534.44;4481366;31;20096;-74
2022/06/13 11:46:00;;;;;;;3.75;2.90;;;;;;;29.02;40.38;98542.72;4485112;31;20110;-74
2022/06/13 11:48:29;;;;;;;6.50;2.95;;;;;;;28.92;41.85;98551.59;4484363;31;20508;-74
2022/06/13 11:51:00;;;;;;;6.47;2.90;;;;;;;28.98;39.98;98537.06;4470521;32;20089;-74
2022/06/13 11:53:37;;;;;;;3.83;2.85;;;;;;;29.37;40.34;98528.59;4478518;32;20092;-74
2022/06/13 11:56:11;;;;;;;3.08;2.50;;;;;;;29.44;38.67;98531.03;4485145;32;20159;-74
2022/06/13 11:58:41;;;;;;;4.30;2.65;;;;;;;29.12;38.36;98534.69;4477158;32;20156;-76
2022/06/13 12:01:14;;;;;;;4.62;2.50;;;;;;;29.12;38.03;98523.91;4482649;32;20107;-76
2022/06/13 12:03:46;;;;;;;3.03;2.60;;;;;;;28.92;39.80;98523.81;4484860;32;20379;-75
2022/06/13 12:06:16;;;;;;;4.32;2.80;;;;;;;28.88;40.75;98518.16;4484088;31;20493;-75
2022/06/13 12:08:50;;;;;;;3.53;2.67;;;;;;;28.72;40.03;98511.06;4481104;31;20120;-73
2022/06/13 12:11:17;;;;;;;3.87;3.05;;;;;;;28.70;40.74;98519.41;4483449;31;20109;-74
2022/06/13 12:13:46;;;;;;;3.83;2.90;;;;;;;28.91;40.16;98508.72;4482462;32;20104;-75
2022/06/13 12:16:17;;;;;;;6.93;2.87;;;;;;;29.04;39.60;98505.53;4473197;32;20138;-73
2022/06/13 12:19:09;;;;;;;3.65;2.53;;;;;;;29.17;40.70;98505.03;4475113;31;20105;-75
2022/06/13 12:22:06;;;;;;;3.95;2.78;;;;;;;29.01;38.59;98504.19;4477791;32;20097;-75
2022/06/13 12:24:48;;;;;;;5.37;3.25;;;;;;;29.70;40.61;98498.66;4426988;32;20196;-74
2022/06/13 12:27:43;;;;;;;3.42;3.00;;;;;;;30.15;38.46;98504.38;4414538;32;20312;-75
2022/06/13 12:30:25;;;;;;;3.97;2.97;;;;;;;29.85;40.33;98506.78;4434447;32;20188;-75